sensor_id;sensor_type;location;lat;lon;timestamp;P1;durP1;ratioP1;P2;durP2;ratioP2
27127;SDS011;14660;49.008;8.390;2022-12-07T00:01:37;13.75;;;8.30;;
27127;SDS011;14660;49.008;8.390;2022-12-07T00:04:04;12.30;;;7.97;;
27127;SDS011;14660;49.008;8.390;2022-12-07T00:09:19;14.63;;;9.70;;
27127;SDS011;14660;49.008;8.390;2022-12-07T00:11:47;12.40;;;8.38;;
27127;SDS011;14660;49.008;8.390;2022-12-07T00:14:15;14.85;;;8.85;;
27127;SDS011;14660;49.008;8.390;2022-12-07T00:16:41;14.75;;;9.27;;
27127;SDS011;14660;49.008;8.390;2022-12-07T00:19:08;14.73;;;8.85;;
27127;SDS011;14660;49.008;8.390;2022-12-07T00:21:36;15.32;;;8.38;;
27127;SDS011;14660;49.008;8.390;2022-12-07T00:24:02;14.70;;;8.98;;
27127;SDS011;14660;49.008;8.390;2022-12-07T00:26:30;13.73;;;8.73;;
27127;SDS011;14660;49.008;8.390;2022-12-07T00:29:02;15.18;;;8.15;;
27127;SDS011;14660;49.008;8.390;2022-12-07T00:31:34;18.40;;;8.40;;
27127;SDS011;14660;49.008;8.390;2022-12-07T00:34:04;13.65;;;8.48;;
27127;SDS011;14660;49.008;8.390;2022-12-07T00:36:31;17.65;;;9.30;;
27127;SDS011;14660;49.008;8.390;2022-12-07T00:38:59;17.80;;;9.98;;
27127;SDS011;14660;49.008;8.390;2022-12-07T00:41:27;14.00;;;9.20;;
27127;SDS011;14660;49.008;8.390;2022-12-07T00:43:54;19.80;;;9.85;;
27127;SDS011;14660;49.008;8.390;2022-12-07T00:46:20;13.77;;;8.90;;
27127;SDS011;14660;49.008;8.390;2022-12-07T00:48:47;15.32;;;9.25;;
27127;SDS011;14660;49.008;8.390;2022-12-07T00:51:14;16.33;;;9.25;;
27127;SDS011;14660;49.008;8.390;2022-12-07T00:53:41;15.43;;;10.13;;
27127;SDS011;14660;49.008;8.390;2022-12-07T00:56:08;18.08;;;9.23;;
27127;SDS011;14660;49.008;8.390;2022-12-07T00:58:36;13.65;;;8.98;;
27127;SDS011;14660;49.008;8.390;2022-12-07T01:01:04;12.35;;;8.38;;
27127;SDS011;14660;49.008;8.390;2022-12-07T01:03:32;13.52;;;8.45;;
27127;SDS011;14660;49.008;8.390;2022-12-07T01:05:59;13.98;;;9.02;;
27127;SDS011;14660;49.008;8.390;2022-12-07T01:08:25;17.50;;;10.07;;
27127;SDS011;14660;49.008;8.390;2022-12-07T01:11:25;14.57;;;8.95;;
27127;SDS011;14660;49.008;8.390;2022-12-07T01:13:46;15.10;;;9.10;;
27127;SDS011;14660;49.008;8.390;2022-12-07T01:16:13;16.45;;;9.20;;
27127;SDS011;14660;49.008;8.390;2022-12-07T01:18:40;17.60;;;10.00;;
27127;SDS011;14660;49.008;8.390;2022-12-07T01:21:12;15.23;;;9.13;;
27127;SDS011;14660;49.008;8.390;2022-12-07T01:23:41;15.07;;;8.43;;
27127;SDS011;14660;49.008;8.390;2022-12-07T01:26:10;17.73;;;8.95;;
27127;SDS011;14660;49.008;8.390;2022-12-07T01:28:38;15.23;;;9.82;;
27127;SDS011;14660;49.008;8.390;2022-12-07T01:31:07;14.82;;;9.02;;
27127;SDS011;14660;49.008;8.390;2022-12-07T01:33:37;15.98;;;10.15;;
27127;SDS011;14660;49.008;8.390;2022-12-07T01:36:06;18.40;;;9.88;;
27127;SDS011;14660;49.008;8.390;2022-12-07T01:38:33;18.10;;;10.88;;
27127;SDS011;14660;49.008;8.390;2022-12-07T01:41:00;16.10;;;10.63;;
27127;SDS011;14660;49.008;8.390;2022-12-07T01:43:28;13.43;;;9.65;;
27127;SDS011;14660;49.008;8.390;2022-12-07T01:45:55;17.30;;;11.07;;
27127;SDS011;14660;49.008;8.390;2022-12-07T01:48:22;15.77;;;10.02;;
27127;SDS011;14660;49.008;8.390;2022-12-07T01:50:53;16.27;;;9.10;;
27127;SDS011;14660;49.008;8.390;2022-12-07T01:53:21;17.48;;;10.05;;
27127;SDS011;14660;49.008;8.390;2022-12-07T01:55:52;17.88;;;9.95;;
27127;SDS011;14660;49.008;8.390;2022-12-07T01:58:19;16.42;;;10.15;;
27127;SDS011;14660;49.008;8.390;2022-12-07T02:00:46;19.63;;;10.82;;
27127;SDS011;14660;49.008;8.390;2022-12-07T02:03:17;15.85;;;10.40;;
27127;SDS011;14660;49.008;8.390;2022-12-07T02:05:49;17.70;;;9.70;;
27127;SDS011;14660;49.008;8.390;2022-12-07T02:08:16;15.85;;;10.45;;
27127;SDS011;14660;49.008;8.390;2022-12-07T02:10:44;19.45;;;10.27;;
27127;SDS011;14660;49.008;8.390;2022-12-07T02:13:15;17.80;;;10.57;;
27127;SDS011;14660;49.008;8.390;2022-12-07T02:20:49;18.55;;;10.43;;
27127;SDS011;14660;49.008;8.390;2022-12-07T02:35:17;17.30;;;9.07;;
27127;SDS011;14660;49.008;8.390;2022-12-07T02:37:55;18.48;;;10.00;;
27127;SDS011;14660;49.008;8.390;2022-12-07T02:40:57;15.48;;;9.38;;
27127;SDS011;14660;49.008;8.390;2022-12-07T02:43:40;19.83;;;10.52;;
27127;SDS011;14660;49.008;8.390;2022-12-07T02:46:16;14.00;;;9.10;;
27127;SDS011;14660;49.008;8.390;2022-12-07T02:48:46;18.20;;;10.45;;
27127;SDS011;14660;49.008;8.390;2022-12-07T02:51:12;15.75;;;10.15;;
27127;SDS011;14660;49.008;8.390;2022-12-07T02:56:37;17.52;;;10.02;;
27127;SDS011;14660;49.008;8.390;2022-12-07T03:10:24;18.35;;;11.18;;
27127;SDS011;14660;49.008;8.390;2022-12-07T03:16:08;16.27;;;10.93;;
27127;SDS011;14660;49.008;8.390;2022-12-07T03:21:29;17.98;;;10.02;;
27127;SDS011;14660;49.008;8.390;2022-12-07T03:23:59;17.08;;;9.98;;
27127;SDS011;14660;49.008;8.390;2022-12-07T03:26:34;20.40;;;11.50;;
27127;SDS011;14660;49.008;8.390;2022-12-07T03:29:39;16.45;;;12.10;;
27127;SDS011;14660;49.008;8.390;2022-12-07T03:32:05;18.17;;;10.18;;
27127;SDS011;14660;49.008;8.390;2022-12-07T03:34:43;17.70;;;10.38;;
27127;SDS011;14660;49.008;8.390;2022-12-07T03:37:17;19.00;;;10.68;;
27127;SDS011;14660;49.008;8.390;2022-12-07T03:40:01;18.55;;;10.40;;
27127;SDS011;14660;49.008;8.390;2022-12-07T03:42:31;17.02;;;9.65;;
27127;SDS011;14660;49.008;8.390;2022-12-07T03:44:58;16.17;;;9.70;;
27127;SDS011;14660;49.008;8.390;2022-12-07T03:47:37;14.68;;;9.60;;
27127;SDS011;14660;49.008;8.390;2022-12-07T03:50:38;22.15;;;10.48;;
27127;SDS011;14660;49.008;8.390;2022-12-07T03:53:19;14.98;;;9.32;;
27127;SDS011;14660;49.008;8.390;2022-12-07T03:55:53;16.10;;;9.60;;
27127;SDS011;14660;49.008;8.390;2022-12-07T03:58:22;18.73;;;10.50;;
27127;SDS011;14660;49.008;8.390;2022-12-07T04:00:49;15.00;;;9.20;;
27127;SDS011;14660;49.008;8.390;2022-12-07T04:03:16;16.67;;;10.27;;
27127;SDS011;14660;49.008;8.390;2022-12-07T04:05:42;17.60;;;10.93;;
27127;SDS011;14660;49.008;8.390;2022-12-07T04:08:08;16.67;;;10.77;;
27127;SDS011;14660;49.008;8.390;2022-12-07T04:10:33;17.73;;;11.50;;
27127;SDS011;14660;49.008;8.390;2022-12-07T04:12:59;17.90;;;10.57;;
27127;SDS011;14660;49.008;8.390;2022-12-07T04:15:25;16.92;;;9.98;;
27127;SDS011;14660;49.008;8.390;2022-12-07T04:17:52;18.50;;;10.52;;
27127;SDS011;14660;49.008;8.390;2022-12-07T04:20:17;18.02;;;10.57;;
27127;SDS011;14660;49.008;8.390;2022-12-07T04:22:43;16.95;;;9.88;;
27127;SDS011;14660;49.008;8.390;2022-12-07T04:25:08;17.80;;;11.20;;
27127;SDS011;14660;49.008;8.390;2022-12-07T04:27:34;16.40;;;10.77;;
27127;SDS011;14660;49.008;8.390;2022-12-07T04:30:00;20.45;;;11.13;;
27127;SDS011;14660;49.008;8.390;2022-12-07T04:32:25;22.52;;;11.07;;
27127;SDS011;14660;49.008;8.390;2022-12-07T04:34:51;19.77;;;10.77;;
27127;SDS011;14660;49.008;8.390;2022-12-07T04:37:16;21.35;;;12.23;;
27127;SDS011;14660;49.008;8.390;2022-12-07T04:39:42;19.48;;;11.43;;
27127;SDS011;14660;49.008;8.390;2022-12-07T04:42:10;18.42;;;11.25;;
27127;SDS011;14660;49.008;8.390;2022-12-07T04:44:37;17.50;;;11.15;;
27127;SDS011;14660;49.008;8.390;2022-12-07T04:47:03;15.35;;;9.25;;
27127;SDS011;14660;49.008;8.390;2022-12-07T04:49:29;15.85;;;10.93;;
27127;SDS011;14660;49.008;8.390;2022-12-07T04:51:54;17.13;;;9.77;;
27127;SDS011;14660;49.008;8.390;2022-12-07T04:54:20;20.92;;;10.68;;
27127;SDS011;14660;49.008;8.390;2022-12-07T04:56:46;17.48;;;11.48;;
27127;SDS011;14660;49.008;8.390;2022-12-07T04:59:12;16.77;;;10.95;;
27127;SDS011;14660;49.008;8.390;2022-12-07T05:01:40;17.85;;;10.23;;
27127;SDS011;14660;49.008;8.390;2022-12-07T05:04:06;17.02;;;10.43;;
27127;SDS011;14660;49.008;8.390;2022-12-07T05:06:32;17.10;;;11.38;;
27127;SDS011;14660;49.008;8.390;2022-12-07T05:08:58;22.25;;;10.63;;
27127;SDS011;14660;49.008;8.390;2022-12-07T05:11:24;17.90;;;10.35;;
27127;SDS011;14660;49.008;8.390;2022-12-07T05:16:39;16.20;;;10.57;;
27127;SDS011;14660;49.008;8.390;2022-12-07T05:19:06;20.48;;;11.07;;
27127;SDS011;14660;49.008;8.390;2022-12-07T05:21:33;19.08;;;11.40;;
27127;SDS011;14660;49.008;8.390;2022-12-07T05:24:00;17.70;;;10.68;;
27127;SDS011;14660;49.008;8.390;2022-12-07T05:26:28;21.10;;;10.55;;
27127;SDS011;14660;49.008;8.390;2022-12-07T05:28:54;17.35;;;9.63;;
27127;SDS011;14660;49.008;8.390;2022-12-07T05:31:22;16.35;;;10.18;;
27127;SDS011;14660;49.008;8.390;2022-12-07T05:33:50;19.50;;;11.27;;
27127;SDS011;14660;49.008;8.390;2022-12-07T05:36:16;15.23;;;10.45;;
27127;SDS011;14660;49.008;8.390;2022-12-07T05:38:42;15.38;;;9.80;;
27127;SDS011;14660;49.008;8.390;2022-12-07T05:41:09;21.27;;;10.15;;
27127;SDS011;14660;49.008;8.390;2022-12-07T05:43:59;15.77;;;10.52;;
27127;SDS011;14660;49.008;8.390;2022-12-07T05:46:25;19.65;;;11.18;;
27127;SDS011;14660;49.008;8.390;2022-12-07T05:48:50;19.02;;;10.25;;
27127;SDS011;14660;49.008;8.390;2022-12-07T05:51:16;18.75;;;11.02;;
27127;SDS011;14660;49.008;8.390;2022-12-07T05:53:42;17.88;;;10.85;;
27127;SDS011;14660;49.008;8.390;2022-12-07T05:56:07;15.65;;;10.43;;
27127;SDS011;14660;49.008;8.390;2022-12-07T05:58:33;18.30;;;10.63;;
27127;SDS011;14660;49.008;8.390;2022-12-07T06:01:17;19.20;;;10.95;;
27127;SDS011;14660;49.008;8.390;2022-12-07T06:03:44;17.48;;;10.05;;
27127;SDS011;14660;49.008;8.390;2022-12-07T06:06:10;16.38;;;10.80;;
27127;SDS011;14660;49.008;8.390;2022-12-07T06:08:37;17.80;;;11.02;;
27127;SDS011;14660;49.008;8.390;2022-12-07T06:11:04;15.88;;;9.40;;
27127;SDS011;14660;49.008;8.390;2022-12-07T06:13:48;16.75;;;10.70;;
27127;SDS011;14660;49.008;8.390;2022-12-07T06:16:14;18.10;;;11.90;;
27127;SDS011;14660;49.008;8.390;2022-12-07T06:18:41;16.33;;;10.05;;
27127;SDS011;14660;49.008;8.390;2022-12-07T06:21:06;19.10;;;10.82;;
27127;SDS011;14660;49.008;8.390;2022-12-07T06:23:33;15.45;;;9.10;;
27127;SDS011;14660;49.008;8.390;2022-12-07T06:25:59;18.52;;;11.27;;
27127;SDS011;14660;49.008;8.390;2022-12-07T06:28:24;17.13;;;10.50;;
27127;SDS011;14660;49.008;8.390;2022-12-07T06:30:58;14.27;;;9.63;;
27127;SDS011;14660;49.008;8.390;2022-12-07T06:33:27;19.60;;;10.35;;
27127;SDS011;14660;49.008;8.390;2022-12-07T06:35:54;22.52;;;11.40;;
27127;SDS011;14660;49.008;8.390;2022-12-07T06:38:19;16.13;;;10.15;;
27127;SDS011;14660;49.008;8.390;2022-12-07T06:40:47;19.35;;;10.70;;
27127;SDS011;14660;49.008;8.390;2022-12-07T06:43:13;15.95;;;9.52;;
27127;SDS011;14660;49.008;8.390;2022-12-07T06:45:38;15.02;;;9.93;;
27127;SDS011;14660;49.008;8.390;2022-12-07T06:48:05;19.63;;;10.63;;
27127;SDS011;14660;49.008;8.390;2022-12-07T06:50:31;17.58;;;10.60;;
27127;SDS011;14660;49.008;8.390;2022-12-07T06:52:57;18.58;;;10.75;;
27127;SDS011;14660;49.008;8.390;2022-12-07T06:55:23;17.40;;;10.82;;
27127;SDS011;14660;49.008;8.390;2022-12-07T06:57:49;18.90;;;10.65;;
27127;SDS011;14660;49.008;8.390;2022-12-07T07:00:16;18.90;;;9.68;;
27127;SDS011;14660;49.008;8.390;2022-12-07T07:02:42;15.10;;;9.40;;
27127;SDS011;14660;49.008;8.390;2022-12-07T07:05:09;19.30;;;11.15;;
27127;SDS011;14660;49.008;8.390;2022-12-07T07:07:34;13.52;;;9.20;;
27127;SDS011;14660;49.008;8.390;2022-12-07T07:10:00;21.20;;;11.55;;
27127;SDS011;14660;49.008;8.390;2022-12-07T07:12:25;23.58;;;9.57;;
27127;SDS011;14660;49.008;8.390;2022-12-07T07:14:51;15.30;;;9.75;;
27127;SDS011;14660;49.008;8.390;2022-12-07T07:17:17;16.52;;;9.65;;
27127;SDS011;14660;49.008;8.390;2022-12-07T07:19:42;15.80;;;9.57;;
27127;SDS011;14660;49.008;8.390;2022-12-07T07:22:09;19.73;;;10.45;;
27127;SDS011;14660;49.008;8.390;2022-12-07T07:24:35;15.60;;;9.63;;
27127;SDS011;14660;49.008;8.390;2022-12-07T07:27:00;17.75;;;10.18;;
27127;SDS011;14660;49.008;8.390;2022-12-07T07:29:26;16.40;;;9.50;;
27127;SDS011;14660;49.008;8.390;2022-12-07T07:31:51;18.65;;;9.13;;
27127;SDS011;14660;49.008;8.390;2022-12-07T07:34:17;19.25;;;10.48;;
27127;SDS011;14660;49.008;8.390;2022-12-07T07:36:42;20.23;;;11.07;;
27127;SDS011;14660;49.008;8.390;2022-12-07T07:39:09;20.35;;;11.32;;
27127;SDS011;14660;49.008;8.390;2022-12-07T07:41:37;20.17;;;11.13;;
27127;SDS011;14660;49.008;8.390;2022-12-07T07:44:04;18.75;;;10.57;;
27127;SDS011;14660;49.008;8.390;2022-12-07T07:46:30;17.25;;;9.88;;
27127;SDS011;14660;49.008;8.390;2022-12-07T07:48:56;18.60;;;9.25;;
27127;SDS011;14660;49.008;8.390;2022-12-07T07:51:21;19.58;;;10.48;;
27127;SDS011;14660;49.008;8.390;2022-12-07T07:53:47;16.40;;;10.55;;
27127;SDS011;14660;49.008;8.390;2022-12-07T07:56:14;15.20;;;9.07;;
27127;SDS011;14660;49.008;8.390;2022-12-07T07:58:40;16.50;;;9.57;;
27127;SDS011;14660;49.008;8.390;2022-12-07T08:01:06;15.88;;;9.07;;
27127;SDS011;14660;49.008;8.390;2022-12-07T08:03:32;15.85;;;8.75;;
27127;SDS011;14660;49.008;8.390;2022-12-07T08:05:58;17.38;;;9.30;;
27127;SDS011;14660;49.008;8.390;2022-12-07T08:08:25;18.65;;;9.50;;
27127;SDS011;14660;49.008;8.390;2022-12-07T08:10:50;17.73;;;9.52;;
27127;SDS011;14660;49.008;8.390;2022-12-07T08:13:16;14.88;;;9.13;;
27127;SDS011;14660;49.008;8.390;2022-12-07T08:15:44;17.85;;;10.35;;
27127;SDS011;14660;49.008;8.390;2022-12-07T08:18:13;13.60;;;8.93;;
27127;SDS011;14660;49.008;8.390;2022-12-07T08:20:41;17.08;;;9.35;;
27127;SDS011;14660;49.008;8.390;2022-12-07T08:23:08;14.90;;;9.23;;
27127;SDS011;14660;49.008;8.390;2022-12-07T08:25:37;17.80;;;8.45;;
27127;SDS011;14660;49.008;8.390;2022-12-07T08:28:04;18.48;;;9.15;;
27127;SDS011;14660;49.008;8.390;2022-12-07T08:30:31;17.42;;;9.30;;
27127;SDS011;14660;49.008;8.390;2022-12-07T08:32:58;15.57;;;9.65;;
27127;SDS011;14660;49.008;8.390;2022-12-07T08:35:24;15.85;;;8.27;;
27127;SDS011;14660;49.008;8.390;2022-12-07T08:37:52;15.77;;;8.00;;
27127;SDS011;14660;49.008;8.390;2022-12-07T08:40:18;16.92;;;8.43;;
27127;SDS011;14660;49.008;8.390;2022-12-07T08:42:51;14.43;;;7.95;;
27127;SDS011;14660;49.008;8.390;2022-12-07T08:45:17;14.07;;;7.85;;
27127;SDS011;14660;49.008;8.390;2022-12-07T08:47:56;15.32;;;9.38;;
27127;SDS011;14660;49.008;8.390;2022-12-07T08:50:28;15.70;;;8.18;;
27127;SDS011;14660;49.008;8.390;2022-12-07T08:52:57;16.70;;;9.00;;
27127;SDS011;14660;49.008;8.390;2022-12-07T08:55:26;19.90;;;10.45;;
27127;SDS011;14660;49.008;8.390;2022-12-07T08:57:54;14.65;;;7.55;;
27127;SDS011;14660;49.008;8.390;2022-12-07T09:00:23;15.80;;;8.38;;
27127;SDS011;14660;49.008;8.390;2022-12-07T09:02:53;12.73;;;8.40;;
27127;SDS011;14660;49.008;8.390;2022-12-07T09:05:21;13.70;;;9.38;;
27127;SDS011;14660;49.008;8.390;2022-12-07T09:07:49;14.40;;;9.25;;
27127;SDS011;14660;49.008;8.390;2022-12-07T09:10:20;23.48;;;10.02;;
27127;SDS011;14660;49.008;8.390;2022-12-07T09:12:47;17.40;;;9.23;;
27127;SDS011;14660;49.008;8.390;2022-12-07T09:15:13;13.35;;;7.85;;
27127;SDS011;14660;49.008;8.390;2022-12-07T09:17:40;13.27;;;7.90;;
27127;SDS011;14660;49.008;8.390;2022-12-07T09:20:05;15.40;;;8.50;;
27127;SDS011;14660;49.008;8.390;2022-12-07T09:22:33;15.75;;;8.65;;
27127;SDS011;14660;49.008;8.390;2022-12-07T09:24:59;16.98;;;9.00;;
27127;SDS011;14660;49.008;8.390;2022-12-07T09:27:26;18.00;;;9.48;;
27127;SDS011;14660;49.008;8.390;2022-12-07T09:29:52;17.83;;;10.13;;
27127;SDS011;14660;49.008;8.390;2022-12-07T09:32:19;15.77;;;9.90;;
27127;SDS011;14660;49.008;8.390;2022-12-07T09:34:45;14.88;;;8.68;;
27127;SDS011;14660;49.008;8.390;2022-12-07T09:37:12;22.58;;;9.07;;
27127;SDS011;14660;49.008;8.390;2022-12-07T09:39:37;14.90;;;8.05;;
27127;SDS011;14660;49.008;8.390;2022-12-07T09:42:05;14.10;;;7.95;;
27127;SDS011;14660;49.008;8.390;2022-12-07T09:44:34;15.43;;;8.40;;
27127;SDS011;14660;49.008;8.390;2022-12-07T09:47:00;17.67;;;10.18;;
27127;SDS011;14660;49.008;8.390;2022-12-07T09:49:28;15.30;;;10.40;;
27127;SDS011;14660;49.008;8.390;2022-12-07T09:52:00;14.88;;;8.82;;
27127;SDS011;14660;49.008;8.390;2022-12-07T09:54:41;17.60;;;9.73;;
27127;SDS011;14660;49.008;8.390;2022-12-07T09:57:11;15.98;;;8.50;;
27127;SDS011;14660;49.008;8.390;2022-12-07T09:59:37;13.82;;;7.82;;
27127;SDS011;14660;49.008;8.390;2022-12-07T10:04:59;16.43;;;8.53;;
27127;SDS011;14660;49.008;8.390;2022-12-07T10:07:26;16.77;;;9.27;;
27127;SDS011;14660;49.008;8.390;2022-12-07T10:09:51;14.77;;;8.35;;
27127;SDS011;14660;49.008;8.390;2022-12-07T10:12:19;14.35;;;8.93;;
27127;SDS011;14660;49.008;8.390;2022-12-07T10:14:54;14.77;;;8.48;;
27127;SDS011;14660;49.008;8.390;2022-12-07T10:17:35;16.30;;;9.23;;
27127;SDS011;14660;49.008;8.390;2022-12-07T10:25:39;13.73;;;7.80;;
27127;SDS011;14660;49.008;8.390;2022-12-07T10:33:37;14.48;;;8.98;;
27127;SDS011;14660;49.008;8.390;2022-12-07T10:42:00;17.55;;;8.60;;
27127;SDS011;14660;49.008;8.390;2022-12-07T10:44:29;13.10;;;7.95;;
27127;SDS011;14660;49.008;8.390;2022-12-07T11:09:57;15.75;;;7.38;;
27127;SDS011;14660;49.008;8.390;2022-12-07T11:24:18;15.65;;;8.27;;
27127;SDS011;14660;49.008;8.390;2022-12-07T11:38:16;16.40;;;9.68;;
27127;SDS011;14660;49.008;8.390;2022-12-07T11:40:47;18.52;;;9.32;;
27127;SDS011;14660;49.008;8.390;2022-12-07T11:43:18;15.75;;;9.00;;
27127;SDS011;14660;49.008;8.390;2022-12-07T11:45:55;17.90;;;10.40;;
27127;SDS011;14660;49.008;8.390;2022-12-07T11:48:33;16.70;;;9.82;;
27127;SDS011;14660;49.008;8.390;2022-12-07T11:51:04;15.30;;;9.27;;
27127;SDS011;14660;49.008;8.390;2022-12-07T11:56:26;15.50;;;9.00;;
27127;SDS011;14660;49.008;8.390;2022-12-07T11:58:54;15.57;;;8.75;;
27127;SDS011;14660;49.008;8.390;2022-12-07T12:07:19;18.27;;;10.57;;
27127;SDS011;14660;49.008;8.390;2022-12-07T12:10:34;18.17;;;9.90;;
27127;SDS011;14660;49.008;8.390;2022-12-07T12:21:42;14.98;;;9.88;;
27127;SDS011;14660;49.008;8.390;2022-12-07T12:24:14;18.77;;;9.88;;
27127;SDS011;14660;49.008;8.390;2022-12-07T12:26:52;18.83;;;10.30;;
27127;SDS011;14660;49.008;8.390;2022-12-07T12:32:22;16.25;;;8.82;;
27127;SDS011;14660;49.008;8.390;2022-12-07T12:41:59;17.98;;;9.18;;
27127;SDS011;14660;49.008;8.390;2022-12-07T12:47:53;16.42;;;9.30;;
27127;SDS011;14660;49.008;8.390;2022-12-07T13:18:42;16.52;;;9.63;;
27127;SDS011;14660;49.008;8.390;2022-12-07T13:24:12;18.23;;;9.63;;
27127;SDS011;14660;49.008;8.390;2022-12-07T13:26:43;19.17;;;10.65;;
27127;SDS011;14660;49.008;8.390;2022-12-07T13:32:02;15.43;;;9.00;;
27127;SDS011;14660;49.008;8.390;2022-12-07T13:37:04;16.20;;;9.73;;
27127;SDS011;14660;49.008;8.390;2022-12-07T13:42:34;16.73;;;9.98;;
27127;SDS011;14660;49.008;8.390;2022-12-07T13:45:13;15.25;;;9.55;;
27127;SDS011;14660;49.008;8.390;2022-12-07T13:47:52;15.43;;;9.20;;
27127;SDS011;14660;49.008;8.390;2022-12-07T13:50:27;16.80;;;9.48;;
27127;SDS011;14660;49.008;8.390;2022-12-07T13:52:58;17.45;;;8.65;;
27127;SDS011;14660;49.008;8.390;2022-12-07T13:55:38;14.38;;;8.77;;
27127;SDS011;14660;49.008;8.390;2022-12-07T13:58:11;15.43;;;9.05;;
27127;SDS011;14660;49.008;8.390;2022-12-07T14:00:39;21.75;;;10.55;;
27127;SDS011;14660;49.008;8.390;2022-12-07T14:05:38;16.10;;;9.98;;
27127;SDS011;14660;49.008;8.390;2022-12-07T14:10:56;15.35;;;10.25;;
27127;SDS011;14660;49.008;8.390;2022-12-07T14:13:38;15.00;;;8.50;;
27127;SDS011;14660;49.008;8.390;2022-12-07T14:19:03;16.98;;;8.60;;
27127;SDS011;14660;49.008;8.390;2022-12-07T14:21:32;13.40;;;7.57;;
27127;SDS011;14660;49.008;8.390;2022-12-07T14:26:46;14.18;;;8.18;;
27127;SDS011;14660;49.008;8.390;2022-12-07T14:29:48;13.63;;;8.13;;
27127;SDS011;14660;49.008;8.390;2022-12-07T14:37:48;10.77;;;6.78;;
27127;SDS011;14660;49.008;8.390;2022-12-07T14:40:17;10.10;;;6.25;;
27127;SDS011;14660;49.008;8.390;2022-12-07T14:42:50;10.98;;;6.65;;
27127;SDS011;14660;49.008;8.390;2022-12-07T14:45:20;14.55;;;7.63;;
27127;SDS011;14660;49.008;8.390;2022-12-07T14:47:48;10.98;;;6.80;;
27127;SDS011;14660;49.008;8.390;2022-12-07T14:50:17;11.63;;;7.70;;
27127;SDS011;14660;49.008;8.390;2022-12-07T14:52:47;12.25;;;7.47;;
27127;SDS011;14660;49.008;8.390;2022-12-07T14:55:28;13.23;;;7.63;;
27127;SDS011;14660;49.008;8.390;2022-12-07T14:57:56;12.57;;;6.93;;
27127;SDS011;14660;49.008;8.390;2022-12-07T15:00:25;11.38;;;6.65;;
27127;SDS011;14660;49.008;8.390;2022-12-07T15:02:54;12.55;;;6.97;;
27127;SDS011;14660;49.008;8.390;2022-12-07T15:05:22;12.07;;;7.18;;
27127;SDS011;14660;49.008;8.390;2022-12-07T15:07:50;15.55;;;7.55;;
27127;SDS011;14660;49.008;8.390;2022-12-07T15:13:05;13.45;;;7.20;;
27127;SDS011;14660;49.008;8.390;2022-12-07T15:15:51;15.40;;;8.40;;
27127;SDS011;14660;49.008;8.390;2022-12-07T15:18:19;11.82;;;6.97;;
27127;SDS011;14660;49.008;8.390;2022-12-07T15:20:48;15.65;;;8.30;;
27127;SDS011;14660;49.008;8.390;2022-12-07T15:23:15;12.23;;;7.63;;
27127;SDS011;14660;49.008;8.390;2022-12-07T15:25:43;13.75;;;8.32;;
27127;SDS011;14660;49.008;8.390;2022-12-07T15:28:11;14.35;;;9.63;;
27127;SDS011;14660;49.008;8.390;2022-12-07T15:30:39;15.25;;;9.15;;
27127;SDS011;14660;49.008;8.390;2022-12-07T15:33:09;19.02;;;10.52;;
27127;SDS011;14660;49.008;8.390;2022-12-07T15:35:40;17.65;;;12.13;;
27127;SDS011;14660;49.008;8.390;2022-12-07T15:38:08;19.40;;;10.73;;
27127;SDS011;14660;49.008;8.390;2022-12-07T15:40:36;27.52;;;15.38;;
27127;SDS011;14660;49.008;8.390;2022-12-07T15:43:03;22.50;;;12.95;;
27127;SDS011;14660;49.008;8.390;2022-12-07T15:45:30;22.77;;;13.40;;
27127;SDS011;14660;49.008;8.390;2022-12-07T15:47:58;20.63;;;12.93;;
27127;SDS011;14660;49.008;8.390;2022-12-07T15:50:25;21.02;;;12.40;;
27127;SDS011;14660;49.008;8.390;2022-12-07T15:52:52;15.60;;;9.75;;
27127;SDS011;14660;49.008;8.390;2022-12-07T15:55:19;16.85;;;10.63;;
27127;SDS011;14660;49.008;8.390;2022-12-07T15:57:45;14.82;;;9.63;;
27127;SDS011;14660;49.008;8.390;2022-12-07T16:00:11;19.67;;;10.93;;
27127;SDS011;14660;49.008;8.390;2022-12-07T16:02:38;20.40;;;11.38;;
27127;SDS011;14660;49.008;8.390;2022-12-07T16:05:05;20.27;;;12.88;;
27127;SDS011;14660;49.008;8.390;2022-12-07T16:07:32;17.33;;;10.75;;
27127;SDS011;14660;49.008;8.390;2022-12-07T16:09:59;15.75;;;10.10;;
27127;SDS011;14660;49.008;8.390;2022-12-07T16:12:25;15.90;;;9.52;;
27127;SDS011;14660;49.008;8.390;2022-12-07T16:14:52;17.00;;;8.50;;
27127;SDS011;14660;49.008;8.390;2022-12-07T16:17:20;12.60;;;7.95;;
27127;SDS011;14660;49.008;8.390;2022-12-07T16:19:47;14.50;;;9.07;;
27127;SDS011;14660;49.008;8.390;2022-12-07T16:22:13;16.92;;;9.50;;
27127;SDS011;14660;49.008;8.390;2022-12-07T16:24:40;15.65;;;8.40;;
27127;SDS011;14660;49.008;8.390;2022-12-07T16:27:07;14.77;;;8.02;;
27127;SDS011;14660;49.008;8.390;2022-12-07T16:29:33;14.38;;;8.52;;
27127;SDS011;14660;49.008;8.390;2022-12-07T16:32:00;15.15;;;9.30;;
27127;SDS011;14660;49.008;8.390;2022-12-07T16:34:25;12.70;;;8.93;;
27127;SDS011;14660;49.008;8.390;2022-12-07T16:36:52;16.60;;;9.68;;
27127;SDS011;14660;49.008;8.390;2022-12-07T16:39:18;16.08;;;9.50;;
27127;SDS011;14660;49.008;8.390;2022-12-07T16:41:45;19.52;;;9.63;;
27127;SDS011;14660;49.008;8.390;2022-12-07T16:44:11;14.75;;;7.75;;
27127;SDS011;14660;49.008;8.390;2022-12-07T16:46:41;17.58;;;9.93;;
27127;SDS011;14660;49.008;8.390;2022-12-07T16:49:12;15.38;;;10.07;;
27127;SDS011;14660;49.008;8.390;2022-12-07T16:51:40;16.73;;;9.07;;
27127;SDS011;14660;49.008;8.390;2022-12-07T16:54:09;13.77;;;7.75;;
27127;SDS011;14660;49.008;8.390;2022-12-07T16:56:37;14.57;;;8.35;;
27127;SDS011;14660;49.008;8.390;2022-12-07T16:59:04;15.35;;;9.05;;
27127;SDS011;14660;49.008;8.390;2022-12-07T17:01:31;18.13;;;8.85;;
27127;SDS011;14660;49.008;8.390;2022-12-07T17:04:01;13.43;;;8.00;;
27127;SDS011;14660;49.008;8.390;2022-12-07T17:06:28;16.75;;;9.68;;
27127;SDS011;14660;49.008;8.390;2022-12-07T17:08:57;14.48;;;9.88;;
27127;SDS011;14660;49.008;8.390;2022-12-07T17:11:25;17.75;;;9.77;;
27127;SDS011;14660;49.008;8.390;2022-12-07T17:13:54;19.38;;;9.88;;
27127;SDS011;14660;49.008;8.390;2022-12-07T17:16:40;15.70;;;8.25;;
27127;SDS011;14660;49.008;8.390;2022-12-07T17:19:06;22.08;;;9.40;;
27127;SDS011;14660;49.008;8.390;2022-12-07T17:21:35;18.02;;;8.95;;
27127;SDS011;14660;49.008;8.390;2022-12-07T17:24:03;21.08;;;10.27;;
27127;SDS011;14660;49.008;8.390;2022-12-07T17:26:32;16.55;;;10.43;;
27127;SDS011;14660;49.008;8.390;2022-12-07T17:28:59;18.77;;;9.88;;
27127;SDS011;14660;49.008;8.390;2022-12-07T17:31:26;16.58;;;9.43;;
27127;SDS011;14660;49.008;8.390;2022-12-07T17:33:53;21.67;;;9.73;;
27127;SDS011;14660;49.008;8.390;2022-12-07T17:36:29;18.52;;;11.88;;
27127;SDS011;14660;49.008;8.390;2022-12-07T17:38:57;14.88;;;9.18;;
27127;SDS011;14660;49.008;8.390;2022-12-07T17:41:26;23.17;;;11.05;;
27127;SDS011;14660;49.008;8.390;2022-12-07T17:44:13;18.77;;;10.00;;
27127;SDS011;14660;49.008;8.390;2022-12-07T17:46:41;17.67;;;11.05;;
27127;SDS011;14660;49.008;8.390;2022-12-07T17:49:07;15.00;;;8.88;;
27127;SDS011;14660;49.008;8.390;2022-12-07T17:51:34;19.10;;;10.00;;
27127;SDS011;14660;49.008;8.390;2022-12-07T17:54:19;15.68;;;8.82;;
27127;SDS011;14660;49.008;8.390;2022-12-07T17:56:46;18.50;;;9.32;;
27127;SDS011;14660;49.008;8.390;2022-12-07T17:59:13;22.65;;;10.90;;